createdAt,value
2019-01-31T00:11:30.574Z,1.29
2019-01-31T00:13:50.558Z,1.17
2019-01-31T00:16:20.785Z,1.21
2019-01-31T00:17:11.814Z,1.2
2019-01-31T00:18:06.626Z,1.26
2019-01-31T00:20:42.383Z,1.32
2019-01-31T00:22:26.183Z,1.25
2019-01-31T00:24:04.415Z,1.32
2019-01-31T00:24:57.357Z,1.31
2019-01-31T00:25:55.303Z,1.26
2019-01-31T00:27:37.649Z,1.21
2019-01-31T00:28:31.543Z,1.11
2019-01-31T00:35:09.981Z,1
2019-01-31T00:59:46.134Z,1.54
2019-01-31T01:00:38.851Z,1.43
2019-01-31T01:01:32.994Z,1.43
2019-01-31T01:02:29.473Z,1.36
2019-01-31T01:03:18.098Z,1.36
2019-01-31T01:06:42.525Z,1.11
2019-01-31T01:07:36.073Z,1.1
2019-01-31T01:08:34.893Z,1.11
2019-01-31T01:09:23.448Z,1.02
2019-01-31T01:10:17.119Z,0.98
2019-01-31T01:11:09.154Z,0.92
2019-01-31T01:11:57.507Z,0.81
2019-01-31T01:12:52.353Z,0.8
2019-01-31T01:15:03.039Z,0.99
2019-01-31T01:16:40.110Z,1
2019-01-31T01:27:09.091Z,0.9
2019-01-31T02:10:32.611Z,1.39
2019-01-31T02:11:27.833Z,1.17
2019-01-31T02:21:10.107Z,0.63
2019-01-31T03:00:21.540Z,0.78
2019-01-31T03:01:15.696Z,0.81
2019-01-31T03:12:04.705Z,0.26
2019-01-31T03:12:54.889Z,0.25
2019-01-31T03:13:55.775Z,0.26
2019-01-31T03:14:48.480Z,0.31
2019-01-31T03:19:52.769Z,0.4
2019-01-31T03:20:45.493Z,0.23
2019-01-31T03:21:37.882Z,0.25
2019-01-31T03:22:31.247Z,0.28
2019-01-31T03:23:23.865Z,0.1
2019-01-31T03:24:16.557Z,-0.03
2019-01-31T03:25:08.934Z,-0.05
2019-01-31T03:31:29.615Z,-0.23
2019-01-31T03:33:35.015Z,-0.09
2019-01-31T03:42:23.059Z,-0.42
2019-01-31T03:43:14.687Z,-0.47
2019-01-31T03:44:11.646Z,-0.32
2019-01-31T03:47:09.442Z,-0.23
2019-01-31T03:49:38.767Z,-0.44
2019-01-31T03:50:36.645Z,-0.41
2019-01-31T03:51:31.188Z,-0.5
2019-01-31T03:53:41.081Z,-0.63
2019-01-31T03:54:38.474Z,-0.73
2019-01-31T03:57:46.671Z,-0.71
2019-01-31T03:58:49.981Z,-0.7
2019-01-31T03:59:46.805Z,-0.6
2019-01-31T04:01:37.719Z,-0.56
2019-01-31T04:03:32.272Z,-0.58
2019-01-31T04:04:31.208Z,-0.55
2019-01-31T04:06:33.758Z,-0.58
2019-01-31T04:11:29.985Z,-0.68
2019-01-31T04:16:17.329Z,-0.5
2019-01-31T04:19:27.450Z,-0.52
2019-01-31T04:22:52.690Z,-0.5
2019-01-31T04:23:49.005Z,-0.49
2019-01-31T04:27:17.188Z,-0.63
2019-01-31T05:10:28.006Z,-0.47
2019-01-31T05:11:20.464Z,-0.55
2019-01-31T05:12:13.036Z,-0.59
2019-01-31T05:13:05.433Z,-0.6
2019-01-31T05:13:57.872Z,-0.58
2019-01-31T05:14:50.517Z,-0.52
2019-01-31T05:15:43.328Z,-0.5
2019-01-31T05:16:35.860Z,-0.47
2019-01-31T05:17:29.424Z,-0.3
2019-01-31T05:18:22.419Z,-0.32
2019-01-31T05:19:14.954Z,-0.24
2019-01-31T05:20:08.647Z,-0.26
2019-01-31T05:21:01.006Z,-0.3
2019-01-31T05:21:53.951Z,-0.3
2019-01-31T05:22:46.468Z,-0.27
2019-01-31T05:23:39.733Z,-0.3
2019-01-31T05:24:35.700Z,-0.3
2019-01-31T05:25:27.585Z,-0.34
2019-01-31T05:26:19.581Z,-0.24
2019-01-31T05:27:10.558Z,-0.31
2019-01-31T05:27:53.862Z,-0.21
2019-01-31T05:28:34.246Z,-0.26
2019-01-31T05:29:14.610Z,-0.24
2019-01-31T05:29:55.025Z,-0.27
2019-01-31T05:30:35.402Z,-0.21
2019-01-31T05:31:15.851Z,-0.12
2019-01-31T05:31:56.267Z,0.04
2019-01-31T05:32:36.540Z,0.01
2019-01-31T05:33:17.003Z,-0.01
2019-01-31T05:33:57.349Z,0.01
2019-01-31T05:34:37.727Z,0.15
2019-01-31T05:35:18.090Z,0.23
2019-01-31T05:35:58.480Z,0.25
2019-01-31T05:36:38.859Z,0.15
2019-01-31T05:37:19.264Z,0.17
2019-01-31T05:37:59.637Z,0.12
2019-01-31T05:38:40.080Z,0.26
2019-01-31T05:39:20.595Z,0.19
2019-01-31T05:40:00.954Z,0.25
2019-01-31T05:40:41.224Z,0.23
2019-01-31T05:41:21.637Z,0.2
2019-01-31T05:42:01.981Z,0.35
2019-01-31T05:42:42.388Z,0.34
2019-01-31T05:43:22.736Z,0.34
2019-01-31T05:44:03.140Z,0.38
2019-01-31T05:44:43.620Z,0.44
2019-01-31T05:45:23.954Z,0.52
2019-01-31T05:46:04.286Z,0.64
2019-01-31T05:46:44.754Z,0.72
2019-01-31T05:47:25.193Z,0.68
2019-01-31T05:48:05.556Z,0.8
2019-01-31T05:48:45.950Z,0.81
2019-01-31T05:49:26.396Z,0.98
2019-01-31T05:50:06.666Z,1.06
2019-01-31T05:50:47.089Z,1.04
2019-01-31T05:51:27.530Z,1.25
2019-01-31T05:52:07.892Z,1.25
2019-01-31T05:52:48.245Z,1.17
2019-01-31T05:53:28.661Z,1.17
2019-01-31T05:54:08.996Z,1.24
2019-01-31T05:54:49.360Z,1.11
2019-01-31T05:55:29.787Z,1.17
2019-01-31T05:56:10.166Z,1.17
2019-01-31T05:56:50.548Z,1.25
2019-01-31T05:57:30.921Z,1.21
2019-01-31T05:58:11.296Z,1.25
2019-01-31T05:58:51.658Z,1.32
2019-01-31T05:59:32.094Z,1.2
2019-01-31T06:01:50.236Z,1.54
2019-01-31T06:02:45.315Z,1.43
2019-01-31T06:03:39.146Z,1.5
2019-01-31T06:05:49.256Z,1.54
2019-01-31T06:06:46.575Z,1.46
2019-01-31T06:07:43.587Z,1.46
2019-01-31T06:08:37.749Z,1.52
2019-01-31T06:09:32.561Z,1.52
2019-01-31T06:10:33.261Z,1.56
2019-01-31T06:11:25.953Z,1.63
2019-01-31T06:13:53.635Z,1.35
2019-01-31T06:14:48.817Z,1.34
2019-01-31T06:15:42.326Z,1.29
2019-01-31T06:16:34.730Z,1.31
2019-01-31T06:17:27.602Z,1.36
2019-01-31T06:18:23.656Z,1.26
2019-01-31T06:19:15.980Z,1.16
2019-01-31T06:20:08.621Z,1.21
2019-01-31T06:21:01.000Z,1.16
2019-01-31T06:21:54.107Z,1
2019-01-31T06:22:48.721Z,1.02
2019-01-31T06:28:38.809Z,1.25
2019-01-31T06:29:31.392Z,1.24
2019-01-31T06:30:24.153Z,1.21
2019-01-31T06:31:16.863Z,1.25
2019-01-31T06:32:09.019Z,1.14
2019-01-31T06:33:01.552Z,1.28
2019-01-31T06:33:54.054Z,1.17
2019-01-31T06:34:46.648Z,1.11
2019-01-31T06:35:40.987Z,1
2019-01-31T06:36:33.455Z,0.96
2019-01-31T06:37:27.236Z,0.99
2019-01-31T06:38:19.501Z,0.92
2019-01-31T06:39:11.732Z,0.95
2019-01-31T06:40:03.759Z,0.92
2019-01-31T06:40:56.197Z,0.88
2019-01-31T06:41:49.717Z,0.81
2019-01-31T06:42:42.573Z,0.75
2019-01-31T06:43:35.417Z,0.84
2019-01-31T06:44:32.445Z,0.88
2019-01-31T06:45:25.590Z,0.81
2019-01-31T06:46:22.294Z,0.8
2019-01-31T06:47:27.335Z,0.75
2019-01-31T06:48:23.854Z,0.74
2019-01-31T06:49:21.063Z,0.81
2019-01-31T06:50:19.360Z,0.74
2019-01-31T06:51:16.673Z,0.71
2019-01-31T06:52:14.099Z,0.7
2019-01-31T06:53:09.771Z,0.72
2019-01-31T06:54:03.698Z,0.77
2019-01-31T06:54:59.255Z,0.78
2019-01-31T06:55:55.635Z,0.74
2019-01-31T06:56:52.887Z,0.68
2019-01-31T06:57:45.830Z,0.72
2019-01-31T06:58:41.104Z,0.71
2019-01-31T06:59:36.588Z,0.6
2019-01-31T07:00:33.797Z,0.7
2019-01-31T07:01:33.017Z,0.62
2019-01-31T07:03:27.686Z,0.6
2019-01-31T07:04:21.703Z,0.64
2019-01-31T07:05:15.606Z,0.51
2019-01-31T07:06:28.428Z,0.53
2019-01-31T07:17:49.639Z,0.51
2019-01-31T07:18:44.115Z,0.56
2019-01-31T07:19:39.639Z,0.56
2019-01-31T07:20:34.059Z,0.52
2019-01-31T07:21:29.245Z,0.53
2019-01-31T07:22:24.194Z,0.51
2019-01-31T07:23:18.391Z,0.64
2019-01-31T07:24:13.381Z,0.62
2019-01-31T07:25:06.289Z,0.8
2019-01-31T07:26:00.804Z,0.77
2019-01-31T07:26:59.814Z,0.82
2019-01-31T07:27:54.398Z,0.89
2019-01-31T07:28:48.339Z,0.93
2019-01-31T07:29:42.083Z,1
2019-01-31T07:30:38.624Z,1.14
2019-01-31T07:31:37.523Z,1.07
2019-01-31T07:32:34.421Z,1.11
2019-01-31T07:35:24.718Z,1.04
2019-01-31T07:36:35.950Z,0.99
2019-01-31T07:37:39.962Z,0.99
2019-01-31T07:38:39.259Z,1
2019-01-31T07:39:36.407Z,0.96
2019-01-31T07:40:33.593Z,0.93
2019-01-31T07:41:40.850Z,0.95
2019-01-31T07:42:28.775Z,0.93
2019-01-31T07:43:26.794Z,0.99
2019-01-31T07:44:22.972Z,0.89
2019-01-31T07:45:20.057Z,0.96
2019-01-31T07:46:18.521Z,0.96
2019-01-31T07:47:14.921Z,1
2019-01-31T07:48:14.166Z,0.99
2019-01-31T07:49:25.293Z,1
2019-01-31T07:50:28.952Z,0.96
2019-01-31T07:51:28.934Z,1.13
2019-01-31T08:25:16.440Z,2.56
2019-01-31T08:26:13.318Z,2.62
2019-01-31T08:27:10.485Z,2.8
2019-01-31T08:28:11.269Z,2.86
2019-01-31T08:29:14.333Z,2.98
2019-01-31T08:30:13.187Z,3.13
2019-01-31T08:31:22.668Z,3.15
2019-01-31T08:33:07.822Z,3.37
2019-01-31T08:34:11.186Z,3.34
2019-01-31T08:35:10.687Z,3.53
2019-01-31T08:36:10.150Z,3.57
2019-01-31T08:39:52.434Z,4
2019-01-31T08:40:52.073Z,4.02
2019-01-31T08:41:49.007Z,4.11
2019-01-31T08:45:15.891Z,4.36
2019-01-31T08:54:49.563Z,4.68
2019-01-31T08:55:47.343Z,4.69
2019-01-31T09:02:14.832Z,4.65
2019-01-31T09:03:05.038Z,4.59
2019-01-31T09:05:11.877Z,4.38
2019-01-31T09:09:25.982Z,4.21
2019-01-31T09:13:16.771Z,4.47
2019-01-31T09:14:13.624Z,4.47
2019-01-31T09:15:13.735Z,4.53
2019-01-31T09:16:12.310Z,4.47
2019-01-31T09:17:11.438Z,4.62
2019-01-31T09:18:05.963Z,4.62
2019-01-31T09:19:04.099Z,4.61
2019-01-31T09:19:59.649Z,4.59
2019-01-31T09:21:06.567Z,4.53
2019-01-31T09:22:05.729Z,4.5
2019-01-31T09:23:08.234Z,4.39
2019-01-31T09:24:11.762Z,4.38
2019-01-31T09:26:39.895Z,4.25
2019-01-31T09:27:18.851Z,4.2
2019-01-31T09:28:00.348Z,4.24
2019-01-31T09:28:41.189Z,4.24
2019-01-31T09:29:24.215Z,4.13
2019-01-31T09:30:06.050Z,4.11
2019-01-31T09:30:47.468Z,4.16
2019-01-31T09:31:28.061Z,4.29
2019-01-31T09:32:10.162Z,4.35
2019-01-31T09:32:51.531Z,4.43
2019-01-31T09:33:33.003Z,4.56
2019-01-31T09:34:14.275Z,4.53
2019-01-31T09:34:55.290Z,4.62
2019-01-31T09:35:36.677Z,4.57
2019-01-31T09:36:17.716Z,4.57
2019-01-31T09:36:59.898Z,4.57
2019-01-31T09:37:39.868Z,4.74
2019-01-31T09:38:21.513Z,4.72
2019-01-31T09:39:01.513Z,4.74
2019-01-31T09:39:42.759Z,4.77
2019-01-31T09:40:23.298Z,4.84
2019-01-31T09:41:04.258Z,4.94
2019-01-31T09:41:44.072Z,5.02
2019-01-31T09:42:26.428Z,5.04
2019-01-31T09:43:05.692Z,5.14
2019-01-31T09:43:46.592Z,5.22
2019-01-31T09:44:27.149Z,5.33
2019-01-31T09:45:08.537Z,5.4
2019-01-31T09:45:49.403Z,5.4
2019-01-31T09:46:30.801Z,5.4
2019-01-31T09:47:11.903Z,5.51
2019-01-31T09:47:53.805Z,5.52
2019-01-31T09:49:35.715Z,5.59
2019-01-31T09:52:05.831Z,5.81
2019-01-31T09:53:42.984Z,5.96
2019-01-31T09:54:28.372Z,6.02
2019-01-31T09:55:08.657Z,6.05
2019-01-31T09:55:49.042Z,6.16
2019-01-31T09:56:30.339Z,6.14
2019-01-31T09:58:38.278Z,6.24
2019-01-31T09:59:29.487Z,6.28
2019-01-31T10:00:26.993Z,6.33
2019-01-31T10:04:56.755Z,6.43
2019-01-31T10:05:36.548Z,6.53
2019-01-31T10:06:17.037Z,6.53
2019-01-31T10:06:57.412Z,6.57
2019-01-31T10:07:37.785Z,6.55
2019-01-31T10:08:20.080Z,6.55
2019-01-31T10:09:00.740Z,6.71
2019-01-31T10:09:41.133Z,6.68
2019-01-31T10:10:22.259Z,6.71
2019-01-31T10:11:02.542Z,6.68
2019-01-31T10:11:43.077Z,6.64
2019-01-31T10:12:24.277Z,6.82
2019-01-31T10:13:08.451Z,6.83
2019-01-31T10:13:49.420Z,6.93
2019-01-31T10:14:30.025Z,6.97
2019-01-31T10:15:10.894Z,7.05
2019-01-31T10:15:52.682Z,7.09
2019-01-31T10:16:33.550Z,7.16
2019-01-31T10:17:14.309Z,7.26
2019-01-31T10:17:57.132Z,7.33
2019-01-31T10:18:37.906Z,7.32
2019-01-31T10:19:19.557Z,7.37
2019-01-31T10:19:59.456Z,7.45
2019-01-31T10:20:40.034Z,7.62
2019-01-31T10:21:21.393Z,7.58
2019-01-31T10:22:02.316Z,7.6
2019-01-31T10:22:43.781Z,7.57
2019-01-31T10:23:24.486Z,7.63
2019-01-31T10:24:05.215Z,7.73
2019-01-31T10:24:45.556Z,7.74
2019-01-31T10:25:26.459Z,7.81
2019-01-31T10:26:07.367Z,7.85
2019-01-31T10:26:47.781Z,7.81
2019-01-31T10:27:28.416Z,7.84
2019-01-31T10:28:09.877Z,8.09
2019-01-31T10:28:50.768Z,7.96
2019-01-31T11:30:24.377Z,8.46
2019-01-31T11:32:54.168Z,9.34
2019-01-31T11:33:44.130Z,9.38
2019-01-31T11:34:35.176Z,9.59
2019-01-31T11:35:30.478Z,9.75
2019-01-31T11:36:18.563Z,9.88
2019-01-31T11:37:15.936Z,10.01
2019-01-31T11:38:04.975Z,10.18
2019-01-31T11:39:00.939Z,10.29
2019-01-31T11:39:50.504Z,10.57
2019-01-31T11:40:41.588Z,10.68
2019-01-31T11:41:35.977Z,10.84
2019-01-31T11:42:26.044Z,10.72
2019-01-31T11:44:18.261Z,10.9
2019-01-31T11:45:06.825Z,10.95
2019-01-31T11:51:26.493Z,11.16
2019-01-31T11:52:15.135Z,11.2
2019-01-31T11:53:04.034Z,11.33
2019-01-31T11:53:53.433Z,11.35
2019-01-31T11:54:42.117Z,11.42
2019-01-31T11:55:31.483Z,11.33
2019-01-31T11:56:19.976Z,11.36
2019-01-31T11:57:16.491Z,11.45
2019-01-31T11:59:14.761Z,11.54
2019-01-31T12:00:03.907Z,11.56
2019-01-31T12:00:53.065Z,11.45
2019-01-31T12:01:41.093Z,11.16
2019-01-31T12:02:29.284Z,11.06
2019-01-31T12:03:18.228Z,10.93
2019-01-31T12:04:08.961Z,10.81
2019-01-31T12:04:59.267Z,10.68
2019-01-31T12:05:48.130Z,10.7
2019-01-31T12:06:37.094Z,10.69
2019-01-31T12:11:29.946Z,10.28
2019-01-31T12:12:18.484Z,10.32
2019-01-31T12:13:07.193Z,10.36
2019-01-31T12:13:56.011Z,10.49
2019-01-31T12:14:44.792Z,10.49
2019-01-31T12:15:33.464Z,10.55
2019-01-31T12:16:22.321Z,10.42
2019-01-31T12:17:10.839Z,10.28
2019-01-31T12:17:59.404Z,10.22
2019-01-31T12:18:48.752Z,9.92
2019-01-31T12:19:36.965Z,9.73
2019-01-31T12:20:25.939Z,9.5
2019-01-31T12:21:14.504Z,9.22
2019-01-31T12:22:02.819Z,9.08
2019-01-31T12:22:51.509Z,9
2019-01-31T12:23:40.217Z,8.71
2019-01-31T12:24:28.576Z,8.58
2019-01-31T12:25:17.593Z,8.47
2019-01-31T12:26:06.569Z,8.43
2019-01-31T12:26:55.073Z,8.12
2019-01-31T12:27:44.770Z,7.91
2019-01-31T12:28:33.924Z,7.76
2019-01-31T12:29:22.379Z,7.71
2019-01-31T12:30:11.017Z,7.77
2019-01-31T12:30:59.766Z,7.74
2019-01-31T12:31:48.507Z,7.88
2019-01-31T12:32:37.814Z,7.81
2019-01-31T12:33:27.658Z,7.82
2019-01-31T12:34:17.968Z,7.95
2019-01-31T12:35:08.440Z,7.96
2019-01-31T12:35:54.987Z,8
2019-01-31T12:36:44.308Z,8.24
2019-01-31T12:37:32.642Z,8.52
2019-01-31T12:38:21.755Z,8.58
2019-01-31T12:39:10.351Z,8.65
2019-01-31T12:39:59.046Z,8.86
2019-01-31T12:40:48.129Z,9.1
2019-01-31T12:41:36.688Z,9.35
2019-01-31T12:42:25.675Z,9.67
2019-01-31T12:43:13.939Z,9.96
2019-01-31T12:44:02.564Z,10.17
2019-01-31T12:44:51.520Z,10.39
2019-01-31T12:45:40.361Z,10.66
2019-01-31T12:46:28.901Z,10.86
2019-01-31T12:47:17.476Z,10.9
2019-01-31T12:48:06.440Z,11.09
2019-01-31T12:48:55.568Z,11.12
2019-01-31T12:49:44.178Z,11.51
2019-01-31T12:50:32.766Z,11.63
2019-01-31T12:51:21.454Z,11.64
2019-01-31T12:52:10.142Z,11.7
2019-01-31T12:52:59.288Z,11.79
2019-01-31T12:53:47.871Z,11.94
2019-01-31T12:54:36.668Z,11.79
2019-01-31T12:55:25.265Z,11.82
2019-01-31T12:56:14.270Z,11.98
2019-01-31T12:57:02.437Z,11.97
2019-01-31T12:57:51.344Z,12.12
2019-01-31T12:58:40.238Z,12.18
2019-01-31T12:59:28.616Z,12.36
2019-01-31T13:00:17.214Z,12.38
2019-01-31T13:01:05.791Z,12.49
2019-01-31T13:01:54.434Z,12.59
2019-01-31T13:02:43.075Z,12.63
2019-01-31T13:03:31.431Z,12.38
2019-01-31T13:04:23.310Z,12.33
2019-01-31T13:05:13.836Z,12.25
2019-01-31T13:06:05.452Z,12.07
2019-01-31T13:06:54.335Z,12.08
2019-01-31T13:07:42.487Z,12.08
2019-01-31T13:08:32.381Z,12.12
2019-01-31T13:09:20.625Z,12.15
2019-01-31T13:10:09.817Z,12.13
2019-01-31T13:10:58.529Z,12.19
2019-01-31T13:11:46.868Z,12.3
2019-01-31T13:12:35.509Z,12.41
2019-01-31T13:13:25.877Z,12.49
2019-01-31T13:14:19.084Z,12.58
2019-01-31T13:15:07.007Z,12.81
2019-01-31T13:15:56.423Z,12.81
2019-01-31T13:16:47.850Z,12.89
2019-01-31T13:17:40.261Z,13.06
2019-01-31T13:18:26.988Z,13.06
2019-01-31T13:19:20.057Z,13.12
2019-01-31T13:20:14.035Z,13.22
2019-01-31T13:21:04.570Z,13.17
2019-01-31T13:22:03.962Z,13.21
2019-01-31T13:25:20.644Z,13.28
2019-01-31T13:26:01.315Z,13.27
2019-01-31T13:26:45.394Z,13.19
2019-01-31T13:27:56.245Z,13.1
2019-01-31T13:31:25.750Z,12.71
2019-01-31T13:32:08.243Z,12.77
2019-01-31T13:32:49.335Z,12.8
2019-01-31T13:33:29.813Z,12.85
2019-01-31T13:34:19.654Z,12.85
2019-01-31T13:35:06.877Z,12.85
2019-01-31T13:35:49.886Z,12.77
2019-01-31T13:36:30.469Z,12.77
2019-01-31T13:37:11.041Z,12.76
2019-01-31T13:37:52.720Z,12.84
2019-01-31T13:38:33.661Z,12.84
2019-01-31T13:39:14.821Z,12.77
2019-01-31T13:39:56.888Z,12.73
2019-01-31T13:40:37.164Z,12.71
2019-01-31T13:41:18.461Z,12.61
2019-01-31T13:41:59.322Z,12.59
2019-01-31T13:42:40.019Z,12.46
2019-01-31T13:43:20.544Z,12.55
2019-01-31T13:44:01.957Z,12.56
2019-01-31T13:44:43.907Z,12.58
2019-01-31T13:45:24.527Z,12.63
2019-01-31T13:46:06.410Z,12.56
2019-01-31T13:46:46.613Z,12.46
2019-01-31T13:47:27.334Z,12.43
2019-01-31T13:48:07.849Z,12.55
2019-01-31T13:48:49.283Z,12.46
2019-01-31T13:49:30.084Z,12.48
2019-01-31T13:50:11.116Z,12.48
2019-01-31T13:52:17.204Z,12.34
2019-01-31T13:55:44.639Z,12.05
2019-01-31T13:56:24.829Z,11.85
2019-01-31T13:57:06.083Z,11.84
2019-01-31T13:57:46.527Z,11.74
2019-01-31T13:58:27.260Z,11.66
2019-01-31T13:59:08.201Z,11.63
2019-01-31T13:59:48.506Z,11.63
2019-01-31T14:00:28.949Z,11.53
2019-01-31T14:01:11.769Z,11.45
2019-01-31T14:01:53.338Z,11.51
2019-01-31T14:02:34.359Z,11.51
2019-01-31T14:03:16.279Z,11.53
2019-01-31T14:03:59.080Z,11.56
2019-01-31T14:04:41.599Z,11.48
2019-01-31T14:05:23.452Z,11.35
2019-01-31T14:06:07.565Z,11.28
2019-01-31T14:06:48.197Z,11.41
2019-01-31T14:07:30.783Z,11.53
2019-01-31T14:08:13.250Z,11.62
2019-01-31T14:08:56.252Z,11.59
2019-01-31T14:09:40.582Z,11.54
2019-01-31T14:10:21.198Z,11.64
2019-01-31T14:11:03.126Z,11.77
2019-01-31T14:11:45.269Z,11.64
2019-01-31T14:12:25.679Z,11.56
2019-01-31T14:13:06.401Z,11.57
2019-01-31T14:13:48.113Z,11.51
2019-01-31T14:14:28.886Z,11.53
2019-01-31T14:15:14.625Z,11.57
2019-01-31T14:15:59.246Z,11.69
2019-01-31T14:16:47.415Z,11.6
2019-01-31T14:17:24.245Z,11.53
2019-01-31T14:18:08.938Z,11.33
2019-01-31T14:18:53.521Z,11.13
2019-01-31T14:19:34.712Z,11.12
2019-01-31T14:20:17.514Z,10.95
2019-01-31T14:20:59.172Z,10.78
2019-01-31T14:21:40.734Z,10.7
2019-01-31T14:22:21.521Z,10.58
2019-01-31T14:23:10.417Z,10.55
2019-01-31T14:23:53.782Z,10.54
2019-01-31T14:24:34.557Z,10.69
2019-01-31T14:25:15.242Z,10.76
2019-01-31T14:25:56.904Z,10.91
2019-01-31T14:26:41.388Z,10.88
2019-01-31T14:31:25.096Z,10.51
2019-01-31T14:32:06.227Z,10.58
2019-01-31T14:32:47.017Z,10.68
2019-01-31T14:33:31.923Z,10.43
2019-01-31T14:34:15.402Z,10.35
2019-01-31T14:34:56.358Z,10.24
2019-01-31T14:35:37.511Z,10.02
2019-01-31T14:36:26.467Z,10.04
2019-01-31T14:37:09.563Z,9.93
2019-01-31T14:37:52.052Z,10.07
2019-01-31T14:38:32.440Z,9.93
2019-01-31T14:39:15.284Z,9.89
2019-01-31T14:39:56.036Z,9.99
2019-01-31T14:40:37.669Z,9.89
2019-01-31T14:41:22.621Z,9.99
2019-01-31T14:42:32.375Z,9.73
2019-01-31T14:43:14.914Z,9.38
2019-01-31T14:43:57.610Z,9.03
2019-01-31T14:44:39.114Z,8.85
2019-01-31T14:45:30.656Z,8.68
2019-01-31T14:46:16.694Z,8.7
2019-01-31T14:46:58.603Z,8.6
2019-01-31T14:47:41.344Z,8.58
2019-01-31T14:48:22.214Z,8.6
2019-01-31T14:49:02.841Z,8.65
2019-01-31T14:49:43.218Z,8.76
2019-01-31T14:50:24.166Z,8.89
2019-01-31T14:51:05.769Z,8.93
2019-01-31T15:01:53.573Z,9.27
2019-01-31T15:05:12.675Z,9.06
2019-01-31T15:06:16.607Z,8.96
2019-01-31T15:07:23.289Z,8.91
2019-01-31T15:08:24.196Z,9.06
2019-01-31T15:11:57.856Z,9.56
2019-01-31T15:13:04.911Z,9.73
2019-01-31T15:21:23.224Z,8.98
2019-01-31T15:22:17.511Z,8.79
2019-01-31T15:24:08.144Z,8.55
2019-01-31T15:28:06.574Z,9.2
2019-01-31T15:29:05.465Z,9.58
2019-01-31T15:35:23.410Z,10.43
2019-01-31T15:37:49.802Z,9.63
2019-01-31T15:39:25.400Z,9.24
2019-01-31T15:40:24.189Z,9.32
2019-01-31T15:41:19.802Z,9.3
2019-01-31T15:42:21.341Z,9.41
2019-01-31T15:43:19.237Z,9.52
2019-01-31T15:44:18.006Z,9.38
2019-01-31T15:46:23.639Z,9.13
2019-01-31T15:47:26.990Z,9.13
2019-01-31T15:48:35.530Z,8.86
2019-01-31T15:49:45.618Z,8.78
2019-01-31T15:53:32.243Z,8.36
2019-01-31T15:54:31.073Z,8.18
2019-01-31T15:55:37.545Z,8.14
2019-01-31T15:56:40.214Z,8
2019-01-31T15:57:43.421Z,7.99
2019-01-31T15:58:46.316Z,7.74
2019-01-31T16:02:57.336Z,7.55
2019-01-31T16:03:55.371Z,7.39
2019-01-31T16:04:52.928Z,7.32
2019-01-31T16:05:50.206Z,7.15
2019-01-31T16:06:46.609Z,6.89
2019-01-31T16:08:57.126Z,6.28
2019-01-31T16:09:52.256Z,6.1
2019-01-31T16:10:45.675Z,6.05
2019-01-31T16:11:39.314Z,5.78
2019-01-31T16:12:35.971Z,5.77
2019-01-31T16:13:31.226Z,5.81
2019-01-31T16:14:24.590Z,5.78
2019-01-31T16:15:17.905Z,5.75
2019-01-31T16:17:20.476Z,5.6
2019-01-31T16:18:20.001Z,5.49
2019-01-31T16:19:18.592Z,5.48
2019-01-31T16:23:01.576Z,5.62
2019-01-31T16:23:58.098Z,5.56
2019-01-31T16:24:50.211Z,5.47
2019-01-31T16:25:47.713Z,5.47
2019-01-31T16:26:43.490Z,5.41
2019-01-31T16:27:48.223Z,5.23
2019-01-31T16:28:51.950Z,5.24
2019-01-31T16:29:48.468Z,5.06
2019-01-31T16:30:56.221Z,4.91
2019-01-31T16:32:02.575Z,4.75
2019-01-31T17:08:23.931Z,3.23
2019-01-31T17:09:20.595Z,3.3
2019-01-31T17:10:17.887Z,3.26
2019-01-31T17:11:15.334Z,3.41
2019-01-31T17:12:28.507Z,3.62
2019-01-31T17:13:30.886Z,3.54
2019-01-31T17:14:37.725Z,3.6
2019-01-31T17:15:49.039Z,3.67
2019-01-31T17:16:57.674Z,3.78
2019-01-31T17:18:06.510Z,3.92
2019-01-31T17:19:05.729Z,4.04
2019-01-31T17:20:07.437Z,4.17
2019-01-31T17:21:08.816Z,4.17
2019-01-31T17:22:15.872Z,4.17
2019-01-31T17:23:22.497Z,4.16
2019-01-31T17:24:26.049Z,4.16
2019-01-31T17:25:23.707Z,4.14
2019-01-31T17:26:24.625Z,3.89
2019-01-31T17:27:28.927Z,3.78
2019-01-31T17:28:28.849Z,3.57
2019-01-31T17:29:35.351Z,3.46
2019-01-31T17:30:45.895Z,3.31
2019-01-31T17:31:50.417Z,3.41
2019-01-31T17:32:54.612Z,3.33
2019-01-31T17:33:56.096Z,3.37
2019-01-31T17:34:55.599Z,3.33
2019-01-31T17:35:51.974Z,3.08
2019-01-31T17:36:48.565Z,3.15
2019-01-31T17:37:26.750Z,2.99
2019-01-31T17:38:07.909Z,3.13
2019-01-31T17:38:55.910Z,3.02
2019-01-31T17:39:47.671Z,2.99
2019-01-31T17:40:35.236Z,3.05
2019-01-31T17:41:35.250Z,3.08
2019-01-31T17:42:22.787Z,3.13
2019-01-31T17:43:09.367Z,3.15
2019-01-31T17:43:50.034Z,3.16
2019-01-31T17:44:30.386Z,2.89
2019-01-31T17:45:10.753Z,2.65
2019-01-31T17:45:52.611Z,2.48
2019-01-31T17:46:33.016Z,2.23
2019-01-31T17:47:13.651Z,2.18
2019-01-31T17:47:53.864Z,1.89
2019-01-31T17:48:35.486Z,1.81
2019-01-31T17:49:14.715Z,1.77
2019-01-31T17:49:55.094Z,1.75
2019-01-31T17:50:35.518Z,1.61
2019-01-31T17:51:15.829Z,1.63
2019-01-31T17:51:56.339Z,1.53
2019-01-31T17:52:36.640Z,1.64
2019-01-31T17:53:16.947Z,1.63
2019-01-31T17:53:57.385Z,1.64
2019-01-31T17:54:37.770Z,1.65
2019-01-31T17:55:18.289Z,1.67
2019-01-31T17:55:58.598Z,1.7
2019-01-31T17:56:38.890Z,1.68
2019-01-31T17:57:19.366Z,1.74
2019-01-31T17:57:59.827Z,1.75
2019-01-31T17:58:40.191Z,1.81
2019-01-31T17:59:20.528Z,1.64
2019-01-31T18:00:00.976Z,1.67
2019-01-31T18:00:41.415Z,1.67
2019-01-31T18:01:21.691Z,1.63
2019-01-31T18:02:02.052Z,1.77
2019-01-31T18:02:45.134Z,1.68
2019-01-31T18:03:22.971Z,1.64
2019-01-31T18:04:03.399Z,1.7
2019-01-31T18:04:43.739Z,1.63
2019-01-31T18:05:24.101Z,1.49
2019-01-31T18:06:04.588Z,1.25
2019-01-31T18:06:45.066Z,1.2
2019-01-31T18:07:25.522Z,1.25
2019-01-31T18:08:08.881Z,1.24
2019-01-31T18:08:46.697Z,1.17
2019-01-31T18:09:27.018Z,1.1
2019-01-31T18:10:07.469Z,1.04
2019-01-31T18:10:47.825Z,1.06
2019-01-31T18:11:28.223Z,1.16
2019-01-31T18:12:08.567Z,1.21
2019-01-31T18:12:49.018Z,1.13
2019-01-31T18:13:29.412Z,1.21
2019-01-31T18:14:09.715Z,1.18
2019-01-31T18:14:50.211Z,1.18
2019-01-31T18:15:41.163Z,1.2
2019-01-31T18:16:11.043Z,1.21
2019-01-31T18:16:51.438Z,1.2
2019-01-31T18:17:31.826Z,1.34
2019-01-31T18:18:12.251Z,1.38
2019-01-31T18:18:52.626Z,1.35
2019-01-31T18:19:33.287Z,1.44
2019-01-31T18:20:13.848Z,1.49
2019-01-31T18:20:54.376Z,1.57
2019-01-31T18:21:34.809Z,1.5
2019-01-31T18:22:15.279Z,1.63
2019-01-31T18:22:55.606Z,1.54
2019-01-31T18:23:36.268Z,1.52
2019-01-31T18:24:16.463Z,1.39
2019-01-31T18:24:56.966Z,1.5
2019-01-31T18:25:37.456Z,1.47
2019-01-31T18:26:17.879Z,1.49
2019-01-31T18:26:58.604Z,1.34
2019-01-31T18:27:39.136Z,1.36
2019-01-31T18:28:19.766Z,1.39
2019-01-31T18:29:00.170Z,1.31
2019-01-31T18:29:40.685Z,1.32
2019-01-31T18:30:20.967Z,1.28
2019-01-31T18:31:01.537Z,1.26
2019-01-31T18:31:41.807Z,1.21
2019-01-31T18:32:22.222Z,1.26
2019-01-31T18:33:02.989Z,1.21
2019-01-31T18:33:43.043Z,1.28
2019-01-31T18:34:23.572Z,1.21
2019-01-31T18:35:03.873Z,1.28
2019-01-31T18:35:44.399Z,1.26
2019-01-31T18:36:25.018Z,1.26
2019-01-31T18:37:05.453Z,1.18
2019-01-31T18:37:46.467Z,1.16
2019-01-31T18:38:26.844Z,1.1
2019-01-31T18:39:07.194Z,1.08
2019-01-31T18:39:47.789Z,1.04
2019-01-31T18:40:28.260Z,1
2019-01-31T18:41:08.767Z,1.02
2019-01-31T18:41:49.272Z,0.95
2019-01-31T18:42:29.539Z,0.99
2019-01-31T18:44:12.166Z,0.88
2019-01-31T18:45:05.631Z,1
2019-01-31T18:45:59.997Z,1.08
2019-01-31T18:46:53.159Z,1.17
2019-01-31T18:47:46.105Z,1.11
2019-01-31T18:48:39.863Z,1.07
2019-01-31T18:49:32.227Z,1.1
2019-01-31T18:50:24.282Z,1.04
2019-01-31T18:51:17.391Z,0.92
2019-01-31T18:52:11.582Z,0.8
2019-01-31T18:53:06.266Z,0.78
2019-01-31T18:53:58.581Z,0.86
2019-01-31T18:54:51.176Z,0.81
2019-01-31T18:55:43.551Z,0.98
2019-01-31T18:56:37.796Z,0.93
2019-01-31T18:57:31.226Z,0.9
2019-01-31T18:58:26.304Z,0.84
2019-01-31T18:59:20.422Z,0.84
2019-01-31T19:00:18.322Z,0.84
2019-01-31T19:01:14.658Z,0.75
2019-01-31T19:02:11.800Z,0.9
2019-01-31T19:03:09.817Z,0.81
2019-01-31T19:04:05.972Z,0.81
2019-01-31T19:05:04.706Z,0.89
2019-01-31T19:06:02.528Z,0.75
2019-01-31T19:06:56.771Z,0.74
2019-01-31T19:07:50.837Z,0.82
2019-01-31T19:08:47.535Z,0.82
2019-01-31T19:09:42.985Z,0.86
2019-01-31T19:10:43.827Z,1
2019-01-31T19:11:35.547Z,0.9
2019-01-31T19:12:32.781Z,0.74
2019-01-31T19:13:29.810Z,0.71
2019-01-31T19:14:25.739Z,0.6
2019-01-31T19:15:22.013Z,0.53
2019-01-31T19:16:17.668Z,0.51
2019-01-31T19:17:15.971Z,0.57
2019-01-31T19:18:10.345Z,0.51
2019-01-31T19:19:05.717Z,0.63
2019-01-31T19:20:00.927Z,0.63
2019-01-31T19:20:54.398Z,0.62
2019-01-31T19:21:53.628Z,0.64
2019-01-31T19:22:53.294Z,0.74
2019-01-31T19:54:58.553Z,2.3
2019-01-31T19:57:20.022Z,2.51